Racecast

Thalia Reid

RPM Legacy (CA) · 13-14 · PAC · Compare head to head

Athlete rating
Best race 102.2 TF
Races 55
Seasons 2 2014 — 2015
Speed rating — all races

Track & Field

TF speed rating

2015 TF

RPM Legacy (CA) · Grade 13-14

Date Meet Event Result Place Rating Difficulty PR/SR Flags
2015-06-28 USATF Region 14 Junior Olympic Championships 400m 1:00.2 3rd · 1st on team -0.031 ★PR SR
2015-06-28 USATF Region 14 Junior Olympic Championships 200m 27.4 10th · 1st on team -0.031
2015-06-28 USATF Region 14 Junior Olympic Championships 200m 27.52 12th · 2nd on team -0.031
2015-06-28 USATF Region 14 Junior Olympic Championships 100m 13.2 10th · 1st on team -0.031
2015-06-28 USATF Region 14 Junior Olympic Championships 100m 13.21 12th · 2nd on team -0.031
2015-06-21 USATF Pacific Association Junior Olympic Championships 100m 13.02 6th · 1st on team -0.031 ★PR SR
2015-06-21 USATF Pacific Association Junior Olympic Championships 100m 13.39 10th · 2nd on team -0.031
2015-06-21 USATF Pacific Association Junior Olympic Championships 400m 1:00.82 7th · 2nd on team -0.031 PR SR
2015-06-21 USATF Pacific Association Junior Olympic Championships 400m 1:00.74 6th · 1st on team -0.031 PR SR
2015-06-21 USATF Pacific Association Junior Olympic Championships 200m 28.04 12th · 2nd on team -0.031
2015-06-21 USATF Pacific Association Junior Olympic Championships 200m 27.23 7th · 1st on team -0.031
2015-05-31 PAC (Pacific Association Youth Champions 200m 27.54 17th · 1st on team -0.024
2015-05-31 PAC (Pacific Association Youth Champions 400m 1:02.86 9th · 1st on team -0.024
2015-05-31 PAC (Pacific Association Youth Champions 100m 13.62 21st · 3rd on team -0.024
2015-05-16 3M Track Club Track and Field Invitation 400m 1:01.34 4th · 1st on team -0.028
2015-05-16 3M Track Club Track and Field Invitation 200m 26.85 10th · 1st on team -0.028
2015-05-16 3M Track Club Track and Field Invitation 100m 13.38 20th · 1st on team -0.028
2015-05-09 Stockton Saints Track Club 100m 13.16 3rd · 1st on team -0.022 PR SR
2015-05-09 Stockton Saints Track Club 200m 26.62 3rd · 1st on team -0.022 ★PR SR
2015-05-09 Stockton Saints Track Club 400m 1:01.26 2nd · 1st on team -0.022 PR SR
2015-05-02 Running Rebels/Top Pacers Invitational 100m 13.23 8th · 1st on team -0.038 PR SR
2015-05-02 Running Rebels/Top Pacers Invitational 100m 13.55 15th · 2nd on team -0.038
2015-05-02 Running Rebels/Top Pacers Invitational 200m 27.74 5th · 1st on team -0.038 PR SR
2015-05-02 Running Rebels/Top Pacers Invitational 400m 1:01.91 4th · 1st on team -0.038 PR SR
2015-04-25 Revolution Express Track Club 100m 13.88 8th · 1st on team -0.024
2015-04-25 Revolution Express Track Club 400m 1:02.35 6th · 1st on team -0.024 PR SR
2015-04-25 Revolution Express Track Club 200m 29.29 19th · 1st on team -0.024 SR
2015-03-28 Contra Costa Cheetahs 100m 13.72 14th · 1st on team -0.017 SR
2015-03-28 Contra Costa Cheetahs 200m 29.59 21st · 1st on team -0.017 SR
2015-03-21 RPM Legacy 400m 1:08.15 36th · 2nd on team -0.020 SR
2015-03-21 RPM Legacy 100m 14.52 38th · 2nd on team -0.020 SR

2014 TF 102.2

RPM Legacy (CA) · Grade 11-12

Date Meet Event Result Place Rating Difficulty PR/SR Flags
2014-06-20 USATF Pacific Assoc. Junior Olympics (Top 8) 100m 14.06 16th · 4th on team -0.031
2014-06-20 USATF Pacific Assoc. Junior Olympics (Top 8) 200m 28.62 12th · 3rd on team -0.031
2014-06-20 USATF Pacific Assoc. Junior Olympics (Top 8) 200m 28.94 17th · 4th on team -0.031
2014-06-20 USATF Pacific Assoc. Junior Olympics (Top 8) 100m 13.7 11th · 3rd on team -0.031 PR SR
2014-05-31 Pacific Association Championships (PAC) 100m 14.14 19th · 3rd on team -0.024
2014-05-31 Pacific Association Championships (PAC) 200m 29.03 13th · 5th on team -0.024
2014-05-31 Pacific Association Championships (PAC) 200m 28.57 9th · 3rd on team -0.024
2014-05-31 Pacific Association Championships (PAC) 400m 1:08.89 13th · 3rd on team -0.024
2014-05-25 Los Angeles Jets Invitational 400m 1:07.82 29th · 3rd on team -0.028
2014-05-25 Los Angeles Jets Invitational 200m 28.09 19th · 2nd on team -0.028 PR SR
2014-05-25 Los Angeles Jets Invitational 100m 14.38 33rd · 1st on team -0.028
2014-04-26 Revolution Express TC 200m 30.56 13th · 4th on team -0.024 PR SR
2014-04-26 Revolution Express TC 400m 1:07.05 9th · 3rd on team -0.024 PR SR
2014-04-26 Revolution Express TC 100m 14.43 6th · 1st on team -0.024
2014-04-05 Sacramento Speed Showcase 200m 30.79 13th · 3rd on team -0.033 PR SR
2014-04-05 Sacramento Speed Showcase 400m 1:12.46 20th · 5th on team -0.033 PR SR
2014-04-05 Sacramento Speed Showcase 100m 13.8 10th · 1st on team -0.033 PR SR
2014-03-22 RPM 400m 1:14.74 31st · 5th on team -0.012 PR SR
2014-03-22 RPM 800m 3:02.9 15th · 4th on team 102.2 -0.012 ★PR ★R SR RSR
2014-03-22 RPM 100m 14.74 20th · 2nd on team -0.012 PR SR
2014-03-01 RETC Practice Meet lj 8'11" -0.024
2014-03-01 RETC Practice Meet 100m 15.5 4th · 2nd on team -0.024 PR SR
2014-03-01 RETC Practice Meet 200m 34.2 6th · 3rd on team -0.024 PR SR
2014-03-01 RETC Practice Meet 400m 1:18.7 12th · 4th on team -0.024 PR SR